RYR3232 LEBL-EIDW
Flight info
| Callsign | RYR3232 |
|---|---|
| Flight time | N/A |
| Altitude | 34000 |
| Route | NATPI DCT EVNAM DCT AGN DCT SECHE DCT UVELI DCT CNA DCT MANAK UY110 TIRAV UT183 BAGAD DCT DOLUR DCT UPCAB DCT IJALA DCT EVRIN DCT BUNED BUNED4L |
| Aircraft | B738/M-SDE2E3FGHIRWXY/LB1 |
Departure
| Time | 2026-05-07 10:42 |
|---|---|
| Airport | Josep Tarradellas Barcelona-El Prat Airport (LEBL) |
Arrival
| Time | N/A |
|---|---|
| Airport | Dublin Airport (EIDW) |
| Time | Latitude | Longitude | Altitude | Speed | Heading |
|---|---|---|---|---|---|
| 2026-05-07 10:23 | 41.30365 | 2.08320 | 20 ft | 0 kts | 306° |
| 2026-05-07 10:32 | 41.30358 | 2.08335 | 21 ft | 3 kts | 299° |
| 2026-05-07 10:32 | 41.30349 | 2.08358 | 21 ft | 3 kts | 287° |
| 2026-05-07 10:32 | 41.30346 | 2.08375 | 20 ft | 2 kts | 259° |
| 2026-05-07 10:32 | 41.30351 | 2.08388 | 20 ft | 2 kts | 199° |
| 2026-05-07 10:33 | 41.30363 | 2.08390 | 24 ft | 2 kts | 172° |
| 2026-05-07 10:33 | 41.30373 | 2.08387 | 20 ft | 2 kts | 160° |
| 2026-05-07 10:33 | 41.30377 | 2.08385 | 20 ft | 1 kts | 157° |
| 2026-05-07 10:33 | 41.30375 | 2.08386 | 20 ft | 0 kts | 157° |
| 2026-05-07 10:35 | 41.30374 | 2.08387 | 20 ft | 1 kts | 157° |
| 2026-05-07 10:35 | 41.30360 | 2.08395 | 24 ft | 4 kts | 156° |
| 2026-05-07 10:35 | 41.30306 | 2.08427 | 20 ft | 13 kts | 155° |
| 2026-05-07 10:35 | 41.30201 | 2.08486 | 18 ft | 17 kts | 174° |
| 2026-05-07 10:36 | 41.30143 | 2.08400 | 19 ft | 16 kts | 248° |
| 2026-05-07 10:36 | 41.30088 | 2.08233 | 19 ft | 23 kts | 241° |
| 2026-05-07 10:36 | 41.30013 | 2.08016 | 17 ft | 29 kts | 244° |
| 2026-05-07 10:36 | 41.29921 | 2.07747 | 17 ft | 34 kts | 246° |
| 2026-05-07 10:37 | 41.29814 | 2.07437 | 15 ft | 39 kts | 244° |
| 2026-05-07 10:37 | 41.29715 | 2.07146 | 15 ft | 20 kts | 245° |
| 2026-05-07 10:37 | 41.29648 | 2.07063 | 14 ft | 13 kts | 171° |
| 2026-05-07 10:37 | 41.29583 | 2.07097 | 14 ft | 0 kts | 156° |
| 2026-05-07 10:39 | 41.29582 | 2.07098 | 14 ft | 1 kts | 155° |
| 2026-05-07 10:39 | 41.29561 | 2.07111 | 14 ft | 6 kts | 155° |
| 2026-05-07 10:39 | 41.29508 | 2.07144 | 15 ft | 10 kts | 152° |
| 2026-05-07 10:40 | 41.29489 | 2.07207 | 16 ft | 0 kts | 68° |
| 2026-05-07 10:40 | 41.29489 | 2.07208 | 16 ft | 0 kts | 67° |
| 2026-05-07 10:41 | 41.29490 | 2.07208 | 16 ft | 0 kts | 66° |
| 2026-05-07 10:41 | 41.29500 | 2.07240 | 18 ft | 23 kts | 66° |
| 2026-05-07 10:41 | 41.29670 | 2.07748 | 17 ft | 95 kts | 66° |
| 2026-05-07 10:42 | 41.30024 | 2.08777 | 26 ft | 148 kts | 66° |
| 2026-05-07 10:42 | 41.30447 | 2.10050 | 689 ft | 146 kts | 67° |
| 2026-05-07 10:42 | 41.30869 | 2.11255 | 1527 ft | 144 kts | 68° |
| 2026-05-07 10:42 | 41.31315 | 2.12556 | 2110 ft | 167 kts | 68° |
| 2026-05-07 10:43 | 41.31850 | 2.14123 | 2459 ft | 202 kts | 68° |
| 2026-05-07 10:43 | 41.32487 | 2.15974 | 2715 ft | 234 kts | 65° |
| 2026-05-07 10:43 | 41.33295 | 2.17998 | 3128 ft | 257 kts | 54° |
| 2026-05-07 10:43 | 41.34610 | 2.19633 | 4055 ft | 263 kts | 26° |
| 2026-05-07 10:44 | 41.36375 | 2.20163 | 5136 ft | 263 kts | 356° |
| 2026-05-07 10:44 | 41.38148 | 2.19549 | 6167 ft | 265 kts | 335° |
| 2026-05-07 10:44 | 41.39804 | 2.18466 | 7230 ft | 265 kts | 331° |
| 2026-05-07 10:44 | 41.41457 | 2.17297 | 8156 ft | 272 kts | 330° |
| 2026-05-07 10:45 | 41.43135 | 2.16093 | 9136 ft | 276 kts | 329° |
| 2026-05-07 10:45 | 41.44850 | 2.14863 | 10010 ft | 284 kts | 330° |
| 2026-05-07 10:45 | 41.46608 | 2.13607 | 10554 ft | 302 kts | 330° |
| 2026-05-07 10:45 | 41.48555 | 2.12219 | 10752 ft | 331 kts | 330° |
| 2026-05-07 10:46 | 41.50697 | 2.10702 | 11003 ft | 356 kts | 330° |
| 2026-05-07 10:46 | 41.52898 | 2.09151 | 11546 ft | 368 kts | 331° |
| 2026-05-07 10:46 | 41.55184 | 2.07543 | 12337 ft | 372 kts | 330° |
| 2026-05-07 10:46 | 41.57484 | 2.05925 | 13171 ft | 377 kts | 330° |
| 2026-05-07 10:47 | 41.59789 | 2.04305 | 13867 ft | 384 kts | 331° |
| 2026-05-07 10:47 | 41.62164 | 2.02637 | 14586 ft | 388 kts | 331° |
| 2026-05-07 10:47 | 41.64564 | 2.00950 | 15328 ft | 391 kts | 330° |
| 2026-05-07 10:47 | 41.66983 | 1.99250 | 16061 ft | 395 kts | 330° |
| 2026-05-07 10:48 | 41.69433 | 1.97525 | 16781 ft | 399 kts | 330° |
| 2026-05-07 10:48 | 41.71896 | 1.95789 | 17472 ft | 403 kts | 330° |
| 2026-05-07 10:48 | 41.74395 | 1.94026 | 18132 ft | 408 kts | 330° |
| 2026-05-07 10:48 | 41.76917 | 1.92243 | 18735 ft | 412 kts | 330° |
| 2026-05-07 10:49 | 41.79463 | 1.90443 | 19352 ft | 415 kts | 330° |
| 2026-05-07 10:49 | 41.82027 | 1.88629 | 19934 ft | 418 kts | 329° |
| 2026-05-07 10:49 | 41.84610 | 1.86800 | 20497 ft | 422 kts | 329° |
| 2026-05-07 10:49 | 41.87219 | 1.84950 | 21054 ft | 426 kts | 329° |
| 2026-05-07 10:50 | 41.89851 | 1.83082 | 21587 ft | 429 kts | 329° |
| 2026-05-07 10:50 | 41.92473 | 1.81220 | 22133 ft | 433 kts | 329° |
| 2026-05-07 10:50 | 41.95145 | 1.79320 | 22669 ft | 436 kts | 329° |
| 2026-05-07 10:50 | 41.97838 | 1.77405 | 23194 ft | 440 kts | 329° |
| 2026-05-07 10:51 | 42.00556 | 1.75468 | 23672 ft | 443 kts | 329° |
| 2026-05-07 10:51 | 42.03295 | 1.73515 | 24096 ft | 446 kts | 329° |
| 2026-05-07 10:51 | 42.06042 | 1.71555 | 24529 ft | 448 kts | 328° |
| 2026-05-07 10:51 | 42.08808 | 1.69579 | 24963 ft | 451 kts | 328° |
| 2026-05-07 10:52 | 42.11589 | 1.67591 | 25393 ft | 453 kts | 328° |
| 2026-05-07 10:52 | 42.14344 | 1.65619 | 25776 ft | 456 kts | 328° |
| 2026-05-07 10:52 | 42.17164 | 1.63598 | 26132 ft | 459 kts | 328° |
| 2026-05-07 10:52 | 42.19992 | 1.61569 | 26581 ft | 461 kts | 328° |
| 2026-05-07 10:53 | 42.22835 | 1.59530 | 27026 ft | 462 kts | 328° |
| 2026-05-07 10:53 | 42.25685 | 1.57482 | 27408 ft | 464 kts | 328° |
| 2026-05-07 10:53 | 42.28540 | 1.55427 | 27739 ft | 467 kts | 328° |
| 2026-05-07 10:53 | 42.31423 | 1.53351 | 28074 ft | 470 kts | 328° |
| 2026-05-07 10:54 | 42.34315 | 1.51265 | 28402 ft | 473 kts | 328° |
| 2026-05-07 10:54 | 42.36239 | 1.49876 | 28636 ft | 474 kts | 328° |
| 2026-05-07 10:54 | 42.39155 | 1.47771 | 29124 ft | 473 kts | 328° |
| 2026-05-07 10:54 | 42.42974 | 1.45013 | 30017 ft | 466 kts | 328° |
| 2026-05-07 10:55 | 42.45827 | 1.42950 | 30494 ft | 464 kts | 327° |
| 2026-05-07 10:55 | 42.48679 | 1.40882 | 30782 ft | 466 kts | 327° |
| 2026-05-07 10:55 | 42.50580 | 1.39502 | 30967 ft | 467 kts | 327° |
| 2026-05-07 10:55 | 42.53446 | 1.37419 | 31293 ft | 468 kts | 327° |
| 2026-05-07 10:56 | 42.56313 | 1.35335 | 31732 ft | 466 kts | 327° |
| 2026-05-07 10:56 | 42.59169 | 1.33257 | 32179 ft | 464 kts | 327° |
| 2026-05-07 10:56 | 42.62012 | 1.31187 | 32575 ft | 463 kts | 327° |
| 2026-05-07 10:56 | 42.64859 | 1.29112 | 32961 ft | 462 kts | 327° |
| 2026-05-07 10:57 | 42.67689 | 1.27046 | 33320 ft | 461 kts | 327° |
| 2026-05-07 10:57 | 42.70556 | 1.25048 | 33665 ft | 464 kts | 332° |
| 2026-05-07 10:57 | 42.73580 | 1.23600 | 33982 ft | 469 kts | 341° |
| 2026-05-07 10:57 | 42.76809 | 1.22773 | 33978 ft | 474 kts | 350° |
| 2026-05-07 10:58 | 42.83393 | 1.21940 | 33996 ft | 475 kts | 351° |
| 2026-05-07 10:58 | 42.89976 | 1.21154 | 33998 ft | 473 kts | 351° |
| 2026-05-07 10:59 | 42.96488 | 1.20301 | 33992 ft | 472 kts | 350° |
| 2026-05-07 10:59 | 43.03011 | 1.19403 | 34022 ft | 471 kts | 350° |
| 2026-05-07 11:00 | 43.09530 | 1.18496 | 34002 ft | 471 kts | 350° |
| 2026-05-07 11:00 | 43.16047 | 1.17592 | 34013 ft | 470 kts | 350° |
| 2026-05-07 11:01 | 43.22559 | 1.16689 | 34025 ft | 470 kts | 350° |
| 2026-05-07 11:01 | 43.29079 | 1.15783 | 34015 ft | 471 kts | 350° |
| 2026-05-07 11:02 | 43.35613 | 1.14872 | 34018 ft | 471 kts | 350° |
| 2026-05-07 11:02 | 43.42104 | 1.13966 | 34022 ft | 472 kts | 350° |
| 2026-05-07 11:03 | 43.48636 | 1.13052 | 34025 ft | 472 kts | 350° |
| 2026-05-07 11:03 | 43.55170 | 1.12136 | 34019 ft | 472 kts | 350° |
| 2026-05-07 11:04 | 43.61496 | 1.10149 | 34024 ft | 463 kts | 334° |
| 2026-05-07 11:04 | 43.67086 | 1.05941 | 34025 ft | 456 kts | 323° |
| 2026-05-07 11:05 | 43.72447 | 1.01262 | 34011 ft | 456 kts | 323° |
| 2026-05-07 11:05 | 43.77808 | 0.96657 | 34010 ft | 456 kts | 324° |
| 2026-05-07 11:06 | 43.83215 | 0.92061 | 34022 ft | 456 kts | 324° |
| 2026-05-07 11:06 | 43.88616 | 0.87471 | 34003 ft | 455 kts | 325° |
| 2026-05-07 11:07 | 43.94311 | 0.83515 | 34015 ft | 459 kts | 331° |
| 2026-05-07 11:07 | 44.00151 | 0.79888 | 33998 ft | 459 kts | 332° |
| 2026-05-07 11:08 | 44.05923 | 0.76249 | 34027 ft | 458 kts | 331° |
| 2026-05-07 11:08 | 44.11708 | 0.72519 | 34017 ft | 458 kts | 330° |
| 2026-05-07 11:09 | 44.17480 | 0.68766 | 34022 ft | 457 kts | 330° |
| 2026-05-07 11:09 | 44.23260 | 0.65001 | 34031 ft | 457 kts | 330° |
| 2026-05-07 11:10 | 44.29033 | 0.61235 | 34025 ft | 458 kts | 330° |
| 2026-05-07 11:10 | 44.34770 | 0.57486 | 34004 ft | 459 kts | 330° |
| 2026-05-07 11:11 | 44.40548 | 0.53701 | 34009 ft | 458 kts | 330° |
| 2026-05-07 11:11 | 44.46321 | 0.49907 | 34032 ft | 459 kts | 330° |
| 2026-05-07 11:12 | 44.52094 | 0.46079 | 34009 ft | 458 kts | 330° |
| 2026-05-07 11:12 | 44.57844 | 0.42255 | 34019 ft | 456 kts | 330° |
| 2026-05-07 11:13 | 44.63540 | 0.38460 | 34031 ft | 455 kts | 330° |
| 2026-05-07 11:13 | 44.69290 | 0.34621 | 34025 ft | 455 kts | 330° |
| 2026-05-07 11:14 | 44.74961 | 0.30828 | 34024 ft | 454 kts | 330° |
| 2026-05-07 11:14 | 44.80675 | 0.26997 | 34022 ft | 454 kts | 330° |
| 2026-05-07 11:15 | 44.86387 | 0.23158 | 34019 ft | 454 kts | 330° |
| 2026-05-07 11:15 | 44.92094 | 0.19315 | 34027 ft | 455 kts | 330° |
| 2026-05-07 11:16 | 44.97815 | 0.15453 | 34020 ft | 456 kts | 330° |
| 2026-05-07 11:16 | 45.03542 | 0.11580 | 34018 ft | 457 kts | 330° |
| 2026-05-07 11:17 | 45.09250 | 0.07713 | 34008 ft | 458 kts | 330° |
| 2026-05-07 11:17 | 45.14995 | 0.03815 | 34016 ft | 458 kts | 330° |
| 2026-05-07 11:18 | 45.20747 | -0.00097 | 34030 ft | 459 kts | 330° |
| 2026-05-07 11:18 | 45.26508 | -0.04026 | 34014 ft | 459 kts | 330° |
| 2026-05-07 11:19 | 45.32268 | -0.07963 | 34000 ft | 460 kts | 330° |
| 2026-05-07 11:19 | 45.38037 | -0.11914 | 34003 ft | 460 kts | 330° |
| 2026-05-07 11:20 | 45.43765 | -0.15846 | 34014 ft | 460 kts | 330° |
| 2026-05-07 11:20 | 45.49528 | -0.19812 | 34003 ft | 459 kts | 330° |
| 2026-05-07 11:21 | 45.55288 | -0.23785 | 34028 ft | 459 kts | 330° |
| 2026-05-07 11:21 | 45.61046 | -0.27766 | 34019 ft | 459 kts | 330° |
| 2026-05-07 11:22 | 45.66709 | -0.31917 | 34010 ft | 454 kts | 322° |
| 2026-05-07 11:22 | 45.71657 | -0.37367 | 33998 ft | 450 kts | 317° |
| 2026-05-07 11:23 | 45.76534 | -0.43002 | 34000 ft | 451 kts | 317° |
| 2026-05-07 11:23 | 45.81439 | -0.48614 | 34003 ft | 450 kts | 317° |
| 2026-05-07 11:24 | 45.86352 | -0.54195 | 34003 ft | 450 kts | 317° |
| 2026-05-07 11:24 | 45.91239 | -0.59746 | 34001 ft | 450 kts | 317° |
| 2026-05-07 11:25 | 45.96147 | -0.65334 | 34003 ft | 450 kts | 317° |
| 2026-05-07 11:25 | 46.01049 | -0.70932 | 34005 ft | 450 kts | 317° |
| 2026-05-07 11:26 | 46.05953 | -0.76545 | 34003 ft | 450 kts | 317° |
| 2026-05-07 11:26 | 46.10819 | -0.82128 | 34003 ft | 450 kts | 317° |
| 2026-05-07 11:27 | 46.15717 | -0.87762 | 34003 ft | 451 kts | 317° |
| 2026-05-07 11:27 | 46.20622 | -0.93414 | 34009 ft | 451 kts | 318° |
| 2026-05-07 11:28 | 46.25542 | -0.99091 | 34018 ft | 451 kts | 318° |
| 2026-05-07 11:28 | 46.30420 | -1.04729 | 34021 ft | 452 kts | 318° |
| 2026-05-07 11:29 | 46.35339 | -1.10428 | 34013 ft | 452 kts | 317° |
| 2026-05-07 11:29 | 46.40220 | -1.16097 | 34016 ft | 452 kts | 318° |
| 2026-05-07 11:30 | 46.45119 | -1.21803 | 34011 ft | 452 kts | 318° |
| 2026-05-07 11:30 | 46.50023 | -1.27527 | 34016 ft | 452 kts | 318° |
| 2026-05-07 11:31 | 46.54936 | -1.33275 | 34021 ft | 453 kts | 318° |
| 2026-05-07 11:31 | 46.59839 | -1.39042 | 34019 ft | 453 kts | 316° |
| 2026-05-07 11:32 | 46.66444 | -1.48758 | 34025 ft | 450 kts | 310° |
| 2026-05-07 11:33 | 46.70719 | -1.55416 | 34018 ft | 450 kts | 310° |
| 2026-05-07 11:33 | 46.75029 | -1.62031 | 34027 ft | 450 kts | 310° |
| 2026-05-07 11:34 | 46.79343 | -1.68610 | 34017 ft | 452 kts | 310° |
| 2026-05-07 11:34 | 46.83696 | -1.75255 | 34010 ft | 452 kts | 310° |
| 2026-05-07 11:35 | 46.88034 | -1.81897 | 34008 ft | 452 kts | 310° |
| 2026-05-07 11:35 | 46.92373 | -1.88561 | 34008 ft | 451 kts | 310° |
| 2026-05-07 11:36 | 46.96695 | -1.95215 | 34009 ft | 451 kts | 310° |
| 2026-05-07 11:36 | 47.00994 | -2.01848 | 34009 ft | 451 kts | 311° |
| 2026-05-07 11:37 | 47.05389 | -2.08429 | 34011 ft | 451 kts | 312° |
| 2026-05-07 11:37 | 47.09821 | -2.14967 | 34010 ft | 451 kts | 312° |
| 2026-05-07 11:38 | 47.14241 | -2.21522 | 34020 ft | 451 kts | 311° |
| 2026-05-07 11:38 | 47.18645 | -2.28094 | 34019 ft | 452 kts | 312° |
| 2026-05-07 11:39 | 47.23023 | -2.34653 | 34023 ft | 452 kts | 312° |
| 2026-05-07 11:39 | 47.27432 | -2.41273 | 34020 ft | 453 kts | 311° |
| 2026-05-07 11:40 | 47.31843 | -2.47913 | 34018 ft | 453 kts | 311° |
| 2026-05-07 11:40 | 47.36249 | -2.54562 | 34023 ft | 453 kts | 312° |
| 2026-05-07 11:41 | 47.40655 | -2.61229 | 34019 ft | 454 kts | 312° |
| 2026-05-07 11:41 | 47.45069 | -2.67925 | 34012 ft | 455 kts | 312° |
| 2026-05-07 11:42 | 47.49454 | -2.74592 | 34004 ft | 456 kts | 311° |
| 2026-05-07 11:42 | 47.53876 | -2.81334 | 34010 ft | 456 kts | 311° |
| 2026-05-07 11:43 | 47.58317 | -2.88066 | 34013 ft | 457 kts | 314° |
| 2026-05-07 11:43 | 47.63336 | -2.93905 | 34016 ft | 460 kts | 322° |
| 2026-05-07 11:44 | 47.68541 | -2.99442 | 34008 ft | 460 kts | 322° |
| 2026-05-07 11:44 | 47.73724 | -3.05014 | 34018 ft | 460 kts | 321° |
| 2026-05-07 11:45 | 47.78893 | -3.10668 | 34019 ft | 461 kts | 321° |
| 2026-05-07 11:45 | 47.84021 | -3.16325 | 34003 ft | 461 kts | 321° |
| 2026-05-07 11:46 | 47.89176 | -3.22033 | 34008 ft | 461 kts | 321° |
| 2026-05-07 11:46 | 47.94323 | -3.27743 | 34010 ft | 461 kts | 321° |
| 2026-05-07 11:47 | 47.99471 | -3.33468 | 34007 ft | 461 kts | 321° |
| 2026-05-07 11:47 | 48.03749 | -3.38236 | 34006 ft | 461 kts | 321° |
| 2026-05-07 11:48 | 48.08888 | -3.43976 | 34009 ft | 461 kts | 321° |